Joice, IA (50446)

7:29 AM CST on November 23, 2014 (GMT -0600)
3 miles north of Fertile, IA | Change Station
CLOSE
Current Station
Personal Weather Station
Location: Hanlontown, IA
Elevation: 1240 ft
Nearby Weather Stations

Elev 1240 ft 43.31 °N, 93.42 °W | Updated 4 minutes ago

Overcast
Overcast
49.5 °F
Feels Like 45 °F
N
12.0
Wind Variable Wind from South
Gusts 16.0 mph

Today
High -- | Low -- °F
--% Chance of Precip.
Yesterday
High -- | Low -- °F
Precip. -- in
7:17 AM 4:42 PM
New Moon, 1% visible
Pressure 29.49 in
Visibility 7.0 miles
Clouds Overcast 500 ft
Windchill 45 °F
Dew Point 49 °F
Humidity 97%
Rainfall 0.00 in
Snow Depth Not available.
UV 0 out of 12
Pollen .10 out of 12
Air Quality Not available.
Flu Activity Not available.
METAR KFXY 231310Z AUTO 18010KT 7SM OVC005 10/10 A2949 RMK AO2

More Conditions Fewer Conditions

Pressure 29.49 in
Visibility 7.0 miles
Clouds Overcast 500 ft
Windchill 45 °F
Dew Point 49 °F
Humidity 97%
Rainfall 0.00 in
Snow Depth Not available.
UV 0 out of 12
Pollen .10 out of 12
Air Quality Not available.
Flu Activity Not available.
METAR KFXY 231310Z AUTO 18010KT 7SM OVC005 10/10 A2949 RMK AO2

More Conditions Fewer Conditions

10-Day Weather Forecast

Almanac

Astronomy

Nov. 23, 2014 Rise Set
Actual Time
Civil Twilight
Nautical Twilight
Astronomical Twilight
Moon
Length of Visible Light
Length of Day
Tomorrow will be .
, % of the Moon is Illuminated

Today's Extremes

State Highs State Lows

Community

WunderPhotos

Upload Photos

1,773,054 photos uploaded!

WunderBlogs® & News

Nearby

Air Quality

  Air Quality AQ Index Pollutant
Not available.

Snow Depth

Station Depth Elevation

Earthquake Activity

City Distance Mag. Time & Date
Minimum magnitude displayed is 2.5.

Coastal Water Temperatures

Place Temperature

Nearby Weather Stations